Terminal Aerodrome Forecast
Issued by NWS

Home | Current Version | Previous Version | Text Only | Print | Product List | Glossary Off
Versions: 1 2 3 4 5 6 7 8 9 10 11 12 13 14 15 16

000
FTUS43 KBIS 310634 AAA
TAFMOT
TAF AMD
KMOT 310634Z 3107/0106 31008KT P6SM VCTS SCT080CB BKN150
      TEMPO 3107/3111 VRB15G25KT -TSRA BKN070CB BKN150
     FM311200 29011KT P6SM VCTS BKN080CB OVC150
     FM311500 29016G24KT P6SM SCT080 SCT150
     FM010200 23005KT P6SM SKC=

USA.gov is the U.S. government's official web portal to all federal, state and local government web resources and services.